createdAt,value
2023-01-17T00:00:35.743Z,98737.38
2023-01-17T00:01:39.265Z,98739.41
2023-01-17T00:02:42.075Z,98741.59
2023-01-17T00:04:03.371Z,98743.19
2023-01-17T00:05:25.327Z,98747.56
2023-01-17T00:06:46.806Z,98742.38
2023-01-17T00:08:08.572Z,98740.22
2023-01-17T00:09:32.002Z,98737.59
2023-01-17T00:10:38.312Z,98732.78
2023-01-17T00:11:41.423Z,98728.59
2023-01-17T00:13:02.145Z,98730.66
2023-01-17T00:14:05.154Z,98736.66
2023-01-17T00:15:09.094Z,98741.22
2023-01-17T00:16:11.845Z,98732.66
2023-01-17T00:17:15.275Z,98737.84
2023-01-17T00:18:18.035Z,98726.06
2023-01-17T00:19:47.879Z,98733.03
2023-01-17T00:21:09.161Z,98732.00
2023-01-17T00:22:45.828Z,98725.16
2023-01-17T00:24:07.141Z,98729.50
2023-01-17T00:25:31.210Z,98716.44
2023-01-17T00:26:33.939Z,98719.09
2023-01-17T00:27:36.933Z,98716.50
2023-01-17T00:28:41.392Z,98722.63
2023-01-17T00:29:43.980Z,98720.97
2023-01-17T00:30:47.361Z,98726.06
2023-01-17T00:31:50.293Z,98727.06
2023-01-17T00:32:53.225Z,98733.19
2023-01-17T00:33:55.833Z,98729.03
2023-01-17T00:34:58.927Z,98732.72
2023-01-17T00:36:02.966Z,98733.38
2023-01-17T00:37:05.730Z,98731.03
2023-01-17T00:38:13.650Z,98738.16
2023-01-17T00:39:16.654Z,98748.53
2023-01-17T00:40:19.217Z,98740.22
2023-01-17T00:41:22.376Z,98740.94
2023-01-17T00:42:25.273Z,98735.75
2023-01-17T00:43:48.380Z,98734.09
2023-01-17T00:45:09.823Z,98737.50
2023-01-17T00:46:31.668Z,98738.44
2023-01-17T00:47:53.611Z,98743.63
2023-01-17T00:49:15.837Z,98746.22
2023-01-17T00:50:37.346Z,98748.00
2023-01-17T00:51:59.093Z,98744.53
2023-01-17T00:53:24.529Z,98746.28
2023-01-17T00:54:45.655Z,98744.63
2023-01-17T00:56:06.848Z,98744.72
2023-01-17T00:57:28.456Z,98731.19
2023-01-17T00:58:50.464Z,98736.19
2023-01-17T01:00:11.643Z,98722.53
2023-01-17T01:01:33.863Z,98727.72
2023-01-17T01:02:56.504Z,98720.97
2023-01-17T01:04:18.657Z,98721.88
2023-01-17T01:05:40.910Z,98723.66
2023-01-17T01:07:02.172Z,98722.72
2023-01-17T01:08:39.140Z,98713.28
2023-01-17T01:10:01.086Z,98714.44
2023-01-17T01:11:27.565Z,98716.97
2023-01-17T01:12:49.145Z,98717.22
2023-01-17T01:14:10.859Z,98714.72
2023-01-17T01:15:32.609Z,98708.78
2023-01-17T01:16:54.297Z,98714.78
2023-01-17T01:18:15.543Z,98711.38
2023-01-17T01:19:37.001Z,98713.87
2023-01-17T01:20:58.658Z,98709.53
2023-01-17T01:22:20.141Z,98707.78
2023-01-17T01:23:41.696Z,98715.56
2023-01-17T01:25:03.356Z,98718.03
2023-01-17T01:26:25.084Z,98708.53
2023-01-17T01:27:47.699Z,98710.25
2023-01-17T01:29:09.409Z,98702.47
2023-01-17T01:30:31.146Z,98699.00
2023-01-17T01:31:53.204Z,98693.81
2023-01-17T01:33:14.389Z,98690.28
2023-01-17T01:34:17.376Z,98682.59
2023-01-17T01:35:20.595Z,98683.44
2023-01-17T01:36:23.923Z,98679.06
2023-01-17T01:37:27.001Z,98675.53
2023-01-17T01:38:29.765Z,98679.81
2023-01-17T01:39:32.794Z,98674.53
2023-01-17T01:40:35.481Z,98667.59
2023-01-17T01:41:38.499Z,98659.91
2023-01-17T01:42:56.441Z,98661.69
2023-01-17T01:43:59.611Z,98651.19
2023-01-17T01:45:23.562Z,98649.59
2023-01-17T01:46:41.874Z,98659.16
2023-01-17T01:47:46.754Z,98660.09
2023-01-17T01:48:58.590Z,98659.16
2023-01-17T01:50:05.411Z,98665.28
2023-01-17T01:51:16.352Z,98665.28
2023-01-17T01:52:23.229Z,98659.16
2023-01-17T01:53:26.430Z,98655.62
2023-01-17T01:54:40.419Z,98664.44
2023-01-17T01:55:43.394Z,98664.50
2023-01-17T01:56:47.951Z,98661.94
2023-01-17T01:57:55.279Z,98664.34
2023-01-17T01:59:00.100Z,98657.50
2023-01-17T02:00:09.118Z,98648.03
2023-01-17T02:01:15.478Z,98662.69
2023-01-17T02:02:18.539Z,98653.38
2023-01-17T02:03:26.039Z,98660.25
2023-01-17T02:04:29.360Z,98646.44
2023-01-17T02:05:32.537Z,98648.19
2023-01-17T02:06:40.042Z,98645.59
2023-01-17T02:07:52.272Z,98637.81
2023-01-17T02:08:58.930Z,98646.63
2023-01-17T02:10:03.666Z,98638.94
2023-01-17T02:11:07.296Z,98638.19
2023-01-17T02:12:11.102Z,98632.09
2023-01-17T02:13:17.151Z,98628.63
2023-01-17T02:14:21.668Z,98626.78
2023-01-17T02:15:33.084Z,98624.97
2023-01-17T02:16:51.801Z,98622.53
2023-01-17T02:18:10.932Z,98631.16
2023-01-17T02:19:44.106Z,98637.28
2023-01-17T02:21:00.119Z,98644.13
2023-01-17T02:22:20.515Z,98645.72
2023-01-17T02:23:36.297Z,98636.34
2023-01-17T02:24:45.224Z,98655.97
2023-01-17T02:26:15.864Z,98652.47
2023-01-17T02:28:07.184Z,98648.94
2023-01-17T02:29:18.621Z,98648.88
2023-01-17T02:30:47.977Z,98655.72
2023-01-17T02:32:17.039Z,98646.28
2023-01-17T02:33:42.634Z,98643.75
2023-01-17T02:35:01.260Z,98648.69
2023-01-17T02:36:22.879Z,98646.19
2023-01-17T02:37:39.610Z,98646.19
2023-01-17T02:39:09.612Z,98645.25
2023-01-17T02:40:34.460Z,98648.59
2023-01-17T02:41:41.013Z,98644.41
2023-01-17T02:42:53.867Z,98642.75
2023-01-17T02:43:56.616Z,98630.03
2023-01-17T02:44:59.790Z,98640.91
2023-01-17T02:46:02.574Z,98645.06
2023-01-17T02:47:22.845Z,98634.69
2023-01-17T02:48:29.751Z,98634.88
2023-01-17T02:49:32.793Z,98630.53
2023-01-17T02:50:50.584Z,98626.19
2023-01-17T02:52:24.460Z,98629.69
2023-01-17T02:53:45.756Z,98631.28
2023-01-17T02:54:54.552Z,98625.19
2023-01-17T02:56:01.184Z,98623.31
2023-01-17T02:57:35.871Z,98609.69
2023-01-17T02:58:41.373Z,98615.63
2023-01-17T03:00:00.041Z,98609.81
2023-01-17T03:01:02.722Z,98605.44
2023-01-17T03:02:28.117Z,98607.28
2023-01-17T03:03:38.333Z,98602.00
2023-01-17T03:05:37.897Z,98607.28
2023-01-17T03:06:48.121Z,98603.94
2023-01-17T03:07:53.851Z,98603.03
2023-01-17T03:08:56.525Z,98607.19
2023-01-17T03:10:03.596Z,98600.44
2023-01-17T03:11:09.839Z,98606.34
2023-01-17T03:12:13.551Z,98600.44
2023-01-17T03:13:16.312Z,98601.84
2023-01-17T03:14:19.066Z,98605.16
2023-01-17T03:15:22.547Z,98604.25
2023-01-17T03:16:29.136Z,98596.38
2023-01-17T03:17:33.151Z,98601.72
2023-01-17T03:18:35.901Z,98599.13
2023-01-17T03:19:39.088Z,98596.53
2023-01-17T03:20:42.479Z,98601.56
2023-01-17T03:21:45.155Z,98599.72
2023-01-17T03:22:48.187Z,98598.03
2023-01-17T03:23:51.496Z,98604.16
2023-01-17T03:24:54.731Z,98602.38
2023-01-17T03:25:57.733Z,98606.56
2023-01-17T03:27:01.047Z,98605.63
2023-01-17T03:28:03.893Z,98603.03
2023-01-17T03:29:06.589Z,98603.88
2023-01-17T03:30:10.326Z,98606.47
2023-01-17T03:31:18.093Z,98603.12
2023-01-17T03:32:21.138Z,98608.97
2023-01-17T03:33:24.869Z,98607.56
2023-01-17T03:34:27.993Z,98593.19
2023-01-17T03:35:30.681Z,98611.75
2023-01-17T03:36:33.772Z,98604.91
2023-01-17T03:37:37.257Z,98609.16
2023-01-17T03:38:40.029Z,98617.03
2023-01-17T03:39:42.917Z,98610.09
2023-01-17T03:40:46.213Z,98614.53
2023-01-17T03:41:49.210Z,98611.75
2023-01-17T03:42:51.907Z,98609.25
2023-01-17T03:43:54.638Z,98605.72
2023-01-17T03:44:57.335Z,98607.50
2023-01-17T03:46:05.877Z,98602.94
2023-01-17T03:47:12.290Z,98599.53
2023-01-17T03:48:15.126Z,98598.59
2023-01-17T03:49:18.246Z,98595.00
2023-01-17T03:50:21.012Z,98597.59
2023-01-17T03:51:24.345Z,98588.12
2023-01-17T03:52:27.323Z,98594.91
2023-01-17T03:53:30.000Z,98595.75
2023-01-17T03:54:33.245Z,98591.28
2023-01-17T03:55:35.927Z,98590.44
2023-01-17T03:56:38.682Z,98589.34
2023-01-17T03:57:42.002Z,98592.78
2023-01-17T03:58:45.032Z,98592.84
2023-01-17T03:59:48.747Z,98596.19
2023-01-17T04:00:51.500Z,98594.62
2023-01-17T04:01:55.152Z,98598.03
2023-01-17T04:02:57.889Z,98591.00
2023-01-17T04:04:00.634Z,98593.59
2023-01-17T04:05:03.529Z,98596.97
2023-01-17T04:06:06.910Z,98582.78
2023-01-17T04:07:09.891Z,98591.75
2023-01-17T04:08:12.540Z,98597.13
2023-01-17T04:09:15.797Z,98592.84
2023-01-17T04:10:18.607Z,98594.44
2023-01-17T04:11:21.487Z,98593.59
2023-01-17T04:12:24.495Z,98592.78
2023-01-17T04:13:27.375Z,98584.81
2023-01-17T04:14:30.237Z,98590.84
2023-01-17T04:15:33.874Z,98584.69
2023-01-17T04:16:37.672Z,98584.53
2023-01-17T04:17:41.561Z,98584.44
2023-01-17T04:18:44.851Z,98579.25
2023-01-17T04:19:47.732Z,98578.41
2023-01-17T04:20:51.000Z,98574.06
2023-01-17T04:21:54.210Z,98566.09
2023-01-17T04:22:57.531Z,98563.56
2023-01-17T04:24:00.281Z,98560.97
2023-01-17T04:25:03.618Z,98555.59
2023-01-17T04:26:06.512Z,98555.59
2023-01-17T04:27:14.249Z,98556.34
2023-01-17T04:28:17.656Z,98552.00
2023-01-17T04:29:20.562Z,98551.16
2023-01-17T04:30:23.619Z,98546.06
2023-01-17T04:31:26.611Z,98545.78
2023-01-17T04:32:29.992Z,98550.16
2023-01-17T04:33:33.526Z,98558.56
2023-01-17T04:34:36.230Z,98551.63
2023-01-17T04:35:39.450Z,98557.62
2023-01-17T04:36:42.099Z,98550.59
2023-01-17T04:37:44.931Z,98550.59
2023-01-17T04:38:48.322Z,98542.81
2023-01-17T04:39:51.052Z,98499.44
2023-01-17T04:40:53.956Z,98553.94
2023-01-17T04:41:56.940Z,98545.22
2023-01-17T04:42:59.731Z,98547.81
2023-01-17T04:44:02.728Z,98550.31
2023-01-17T04:45:07.092Z,98545.22
2023-01-17T04:46:10.999Z,98545.22
2023-01-17T04:47:13.775Z,98545.97
2023-01-17T04:48:16.544Z,98540.84
2023-01-17T04:49:19.938Z,98539.84
2023-01-17T04:50:22.661Z,98544.19
2023-01-17T04:51:25.289Z,98534.62
2023-01-17T04:52:28.333Z,98539.84
2023-01-17T04:53:31.033Z,98535.47
2023-01-17T04:54:34.002Z,98537.25
2023-01-17T04:55:37.181Z,98537.16
2023-01-17T04:56:39.861Z,98543.19
2023-01-17T04:57:42.558Z,98544.09
2023-01-17T04:58:45.457Z,98543.19
2023-01-17T04:59:49.461Z,98544.84
2023-01-17T05:00:52.826Z,98549.38
2023-01-17T05:01:55.983Z,98550.41
2023-01-17T05:02:58.769Z,98552.06
2023-01-17T05:04:01.527Z,98549.66
2023-01-17T05:05:07.288Z,98539.38
2023-01-17T05:06:10.179Z,98545.41
2023-01-17T05:07:13.104Z,98536.22
2023-01-17T05:08:18.264Z,98550.78
2023-01-17T05:09:20.967Z,98554.31
2023-01-17T05:10:25.258Z,98546.59
2023-01-17T05:11:27.926Z,98552.09
2023-01-17T05:12:31.177Z,98557.09
2023-01-17T05:13:33.906Z,98565.78
2023-01-17T05:14:36.656Z,98570.09
2023-01-17T05:15:41.462Z,98571.91
2023-01-17T05:16:44.343Z,98568.56
2023-01-17T05:17:47.071Z,98571.91
2023-01-17T05:18:54.110Z,98573.50
2023-01-17T05:19:56.802Z,98575.28
2023-01-17T05:21:04.014Z,98575.28
2023-01-17T05:22:15.177Z,98571.75
2023-01-17T05:23:18.010Z,98554.88
2023-01-17T05:24:21.250Z,98568.19
2023-01-17T05:25:30.477Z,98568.00
2023-01-17T05:26:33.675Z,98556.72
2023-01-17T05:27:37.315Z,98554.97
2023-01-17T05:28:40.362Z,98553.94
2023-01-17T05:29:43.324Z,98538.37
2023-01-17T05:30:46.246Z,98534.84
2023-01-17T05:31:49.508Z,98526.28
2023-01-17T05:32:54.016Z,98530.37
2023-01-17T05:33:56.742Z,98531.03
2023-01-17T05:34:59.921Z,98530.19
2023-01-17T05:36:04.231Z,98528.44
2023-01-17T05:37:07.396Z,98528.50
2023-01-17T05:38:10.121Z,98519.91
2023-01-17T05:39:12.967Z,98513.97
2023-01-17T05:40:17.626Z,98518.88
2023-01-17T05:41:20.287Z,98509.31
2023-01-17T05:42:23.415Z,98510.19
2023-01-17T05:43:26.095Z,98514.63
2023-01-17T05:44:28.768Z,98514.69
2023-01-17T05:45:33.357Z,98514.69
2023-01-17T05:46:36.096Z,98524.06
2023-01-17T05:47:39.538Z,98527.59
2023-01-17T05:48:42.265Z,98527.59
2023-01-17T05:49:46.352Z,98523.25
2023-01-17T05:50:49.403Z,98530.28
2023-01-17T05:51:54.720Z,98517.59
2023-01-17T05:53:03.700Z,98527.03
2023-01-17T05:54:06.777Z,98526.09
2023-01-17T05:55:09.872Z,98537.72
2023-01-17T05:56:12.574Z,98530.22
2023-01-17T05:57:16.836Z,98541.22
2023-01-17T05:58:21.947Z,98537.81
2023-01-17T05:59:36.465Z,98541.88
2023-01-17T06:00:39.878Z,98533.19
2023-01-17T06:01:42.797Z,98540.41
2023-01-17T06:02:46.232Z,98542.06
2023-01-17T06:03:49.127Z,98541.41
2023-01-17T06:04:51.990Z,98541.34
2023-01-17T06:05:54.770Z,98539.56
2023-01-17T06:06:57.928Z,98528.56
2023-01-17T06:08:00.773Z,98525.84
2023-01-17T06:09:03.919Z,98513.63
2023-01-17T06:10:07.476Z,98516.97
2023-01-17T06:11:10.207Z,98514.44
2023-01-17T06:12:13.251Z,98512.78
2023-01-17T06:13:21.012Z,98507.78
2023-01-17T06:14:23.810Z,98520.97
2023-01-17T06:15:26.585Z,98511.09
2023-01-17T06:16:29.959Z,98508.31
2023-01-17T06:17:32.979Z,98506.47
2023-01-17T06:18:35.823Z,98509.25
2023-01-17T06:19:38.746Z,98508.22
2023-01-17T06:20:41.631Z,98516.66
2023-01-17T06:21:44.279Z,98516.59
2023-01-17T06:22:47.305Z,98516.47
2023-01-17T06:23:50.025Z,98519.81
2023-01-17T06:24:52.847Z,98512.09
2023-01-17T06:25:55.651Z,98502.03
2023-01-17T06:26:58.320Z,98509.50
2023-01-17T06:28:02.185Z,98498.50
2023-01-17T06:29:04.882Z,98511.19
2023-01-17T06:30:08.745Z,98504.03
2023-01-17T06:31:11.603Z,98509.13
2023-01-17T06:32:14.518Z,98512.78
2023-01-17T06:33:17.642Z,98504.12
2023-01-17T06:34:20.547Z,98500.69
2023-01-17T06:35:23.303Z,98518.69
2023-01-17T06:36:25.960Z,98512.84
2023-01-17T06:37:28.628Z,98515.37
2023-01-17T06:38:31.857Z,98518.78
2023-01-17T06:39:34.761Z,98514.44
2023-01-17T06:40:37.555Z,98509.44
2023-01-17T06:41:40.207Z,98509.25
2023-01-17T06:42:42.925Z,98508.28
2023-01-17T06:43:45.943Z,98515.19
2023-01-17T06:44:48.641Z,98512.78
2023-01-17T06:45:51.501Z,98519.50
2023-01-17T06:46:54.472Z,98521.47
2023-01-17T06:47:59.439Z,98522.41
2023-01-17T06:49:02.497Z,98519.62
2023-01-17T06:50:07.506Z,98511.09
2023-01-17T06:51:10.369Z,98515.53
2023-01-17T06:52:13.026Z,98523.16
2023-01-17T06:53:15.716Z,98517.78
2023-01-17T06:54:19.481Z,98519.69
2023-01-17T06:55:22.254Z,98515.44
2023-01-17T06:56:25.020Z,98509.25
2023-01-17T06:57:27.794Z,98509.88
2023-01-17T06:58:30.451Z,98507.91
2023-01-17T06:59:33.442Z,98514.97
2023-01-17T07:00:38.884Z,98510.50
2023-01-17T07:01:42.973Z,98507.00
2023-01-17T07:02:49.577Z,98512.38
2023-01-17T07:03:53.103Z,98513.03
2023-01-17T07:04:56.138Z,98514.59
2023-01-17T07:06:01.508Z,98524.31
2023-01-17T07:07:04.824Z,98526.00
2023-01-17T07:08:07.635Z,98528.59
2023-01-17T07:09:10.462Z,98534.06
2023-01-17T07:10:14.944Z,98533.88
2023-01-17T07:11:17.698Z,98532.03
2023-01-17T07:12:20.836Z,98533.69
2023-01-17T07:13:23.527Z,98533.41
2023-01-17T07:14:26.200Z,98535.06
2023-01-17T07:15:29.260Z,98538.50
2023-01-17T07:16:33.867Z,98537.37
2023-01-17T07:17:36.598Z,98541.84
2023-01-17T07:18:39.359Z,98543.50
2023-01-17T07:19:43.101Z,98538.59
2023-01-17T07:20:46.835Z,98534.25
2023-01-17T07:21:54.003Z,98531.44
2023-01-17T07:22:56.800Z,98531.19
2023-01-17T07:23:59.803Z,98531.91
2023-01-17T07:25:02.458Z,98534.50
2023-01-17T07:26:05.609Z,98528.28
2023-01-17T07:27:08.814Z,98534.00
2023-01-17T07:28:11.541Z,98533.19
2023-01-17T07:29:14.708Z,98541.22
2023-01-17T07:30:17.901Z,98547.16
2023-01-17T07:31:21.318Z,98546.97
2023-01-17T07:32:26.044Z,98547.69
2023-01-17T07:33:28.702Z,98548.62
2023-01-17T07:34:31.402Z,98545.91
2023-01-17T07:35:34.206Z,98551.97
2023-01-17T07:36:37.370Z,98544.87
2023-01-17T07:37:40.419Z,98542.22
2023-01-17T07:38:46.774Z,98559.19
2023-01-17T07:39:50.428Z,98566.03
2023-01-17T07:40:53.067Z,98559.69
2023-01-17T07:41:55.986Z,98570.28
2023-01-17T07:43:02.294Z,98561.37
2023-01-17T07:44:05.177Z,98571.78
2023-01-17T07:45:08.609Z,98576.59
2023-01-17T07:46:11.676Z,98573.25
2023-01-17T07:47:14.840Z,98578.25
2023-01-17T07:48:22.488Z,98579.38
2023-01-17T07:49:25.270Z,98574.06
2023-01-17T07:50:28.348Z,98575.56
2023-01-17T07:51:31.069Z,98571.81
2023-01-17T07:52:34.199Z,98591.03
2023-01-17T07:53:37.294Z,98585.63
2023-01-17T07:54:39.952Z,98585.63
2023-01-17T07:55:42.674Z,98590.97
2023-01-17T07:56:47.209Z,98587.53
2023-01-17T07:57:50.963Z,98596.78
2023-01-17T07:58:53.661Z,98600.22
2023-01-17T07:59:56.507Z,98603.66
2023-01-17T08:01:10.915Z,98607.19
2023-01-17T08:02:18.959Z,98600.13
2023-01-17T08:03:21.614Z,98606.25
2023-01-17T08:04:27.681Z,98603.44
2023-01-17T08:05:31.024Z,98601.97
2023-01-17T08:06:33.827Z,98606.87
2023-01-17T08:07:37.342Z,98607.81
2023-01-17T08:08:40.117Z,98614.66
2023-01-17T08:09:44.072Z,98613.84
2023-01-17T08:10:47.396Z,98605.34
2023-01-17T08:11:50.291Z,98606.59
2023-01-17T08:12:53.514Z,98615.84
2023-01-17T08:13:59.437Z,98617.53
2023-01-17T08:15:02.159Z,98613.72
2023-01-17T08:16:08.594Z,98613.06
2023-01-17T08:17:15.054Z,98616.69
2023-01-17T08:18:18.641Z,98612.34
2023-01-17T08:19:22.450Z,98612.22
2023-01-17T08:20:27.645Z,98613.37
2023-01-17T08:21:30.750Z,98605.34
2023-01-17T08:22:33.432Z,98625.75
2023-01-17T08:23:36.431Z,98614.19
2023-01-17T08:24:39.072Z,98618.66
2023-01-17T08:25:41.836Z,98613.44
2023-01-17T08:26:44.846Z,98619.28
2023-01-17T08:27:47.594Z,98621.06
2023-01-17T08:29:00.956Z,98609.75
2023-01-17T08:30:05.266Z,98609.94
2023-01-17T08:31:09.507Z,98612.03
2023-01-17T08:32:12.378Z,98630.34
2023-01-17T08:33:16.181Z,98625.56
2023-01-17T08:34:19.420Z,98625.66
2023-01-17T08:35:22.781Z,98627.16
2023-01-17T08:36:26.417Z,98634.00
2023-01-17T08:37:29.406Z,98632.22
2023-01-17T08:38:32.168Z,98633.59
2023-01-17T08:39:35.719Z,98634.75
2023-01-17T08:40:38.493Z,98636.53
2023-01-17T08:41:41.239Z,98635.78
2023-01-17T08:42:44.337Z,98636.53
2023-01-17T08:43:48.023Z,98635.56
2023-01-17T08:44:51.075Z,98649.63
2023-01-17T08:45:56.111Z,98654.72
2023-01-17T08:46:59.045Z,98648.38
2023-01-17T08:48:01.906Z,98644.75
2023-01-17T08:49:04.638Z,98649.97
2023-01-17T08:50:08.536Z,98652.44
2023-01-17T08:51:12.005Z,98654.13
2023-01-17T08:52:15.572Z,98661.72
2023-01-17T08:53:21.634Z,98663.09
2023-01-17T08:54:24.477Z,98662.72
2023-01-17T08:55:27.516Z,98655.41
2023-01-17T08:56:30.440Z,98662.44
2023-01-17T08:57:33.109Z,98661.84
2023-01-17T08:58:35.971Z,98667.69
2023-01-17T08:59:38.946Z,98668.00
2023-01-17T09:00:42.222Z,98654.59
2023-01-17T09:01:46.173Z,98661.56
2023-01-17T09:02:52.202Z,98668.53
2023-01-17T09:03:55.239Z,98657.19
2023-01-17T09:04:57.980Z,98654.03
2023-01-17T09:06:06.649Z,98662.81
2023-01-17T09:07:09.753Z,98671.34
2023-01-17T09:08:12.663Z,98670.72
2023-01-17T09:09:16.825Z,98661.47
2023-01-17T09:10:19.843Z,98672.69
2023-01-17T09:11:22.815Z,98674.47
2023-01-17T09:12:25.477Z,98674.28
2023-01-17T09:13:28.365Z,98663.53
2023-01-17T09:14:31.200Z,98665.31
2023-01-17T09:15:33.932Z,98673.97
2023-01-17T09:16:37.081Z,98666.56
2023-01-17T09:17:39.997Z,98669.78
2023-01-17T09:18:42.658Z,98665.41
2023-01-17T09:19:47.822Z,98663.44
2023-01-17T09:20:54.915Z,98669.78
2023-01-17T09:21:57.879Z,98665.84
2023-01-17T09:23:04.142Z,98687.50
2023-01-17T09:24:07.044Z,98695.50
2023-01-17T09:25:09.928Z,98681.75
2023-01-17T09:26:22.209Z,98716.69
2023-01-17T09:27:28.183Z,98687.16
2023-01-17T09:28:31.331Z,98691.66
2023-01-17T09:29:34.026Z,98680.44
2023-01-17T09:30:37.432Z,98699.47
2023-01-17T09:31:42.241Z,98691.34
2023-01-17T09:32:52.225Z,98675.50
2023-01-17T09:33:56.344Z,98673.84
2023-01-17T09:35:00.815Z,98688.44
2023-01-17T09:36:05.569Z,98681.87
2023-01-17T09:37:08.359Z,98685.22
2023-01-17T09:38:12.301Z,98681.56
2023-01-17T09:39:15.389Z,98689.69
2023-01-17T09:40:22.986Z,98684.69
2023-01-17T09:41:42.723Z,98690.94
2023-01-17T09:42:46.163Z,98680.09
2023-01-17T09:43:55.517Z,98678.22
2023-01-17T09:44:59.173Z,98678.22
2023-01-17T09:46:02.627Z,98676.75
2023-01-17T09:47:14.828Z,98679.22
2023-01-17T09:48:25.417Z,98678.78
2023-01-17T09:49:42.372Z,98668.97
2023-01-17T09:50:53.299Z,98683.78
2023-01-17T09:51:56.106Z,98675.91
2023-01-17T09:53:05.921Z,98668.66
2023-01-17T09:54:21.853Z,98675.53
2023-01-17T09:55:25.085Z,98679.00
2023-01-17T09:56:37.230Z,98677.47
2023-01-17T09:57:52.632Z,98701.31
2023-01-17T10:00:02.941Z,98674.09
2023-01-17T10:01:27.743Z,98677.34
2023-01-17T10:02:33.664Z,98674.63
2023-01-17T10:03:44.120Z,98660.53
2023-01-17T10:05:02.099Z,98668.22
2023-01-17T10:06:52.098Z,98671.53
2023-01-17T10:08:23.195Z,98667.87
2023-01-17T10:09:31.805Z,98674.78
2023-01-17T10:10:47.629Z,98664.03
2023-01-17T10:11:56.345Z,98662.47
2023-01-17T10:13:14.550Z,98673.63
2023-01-17T10:14:19.830Z,98663.94
2023-01-17T10:15:34.554Z,98681.97
2023-01-17T10:17:02.158Z,98662.31
2023-01-17T10:18:35.827Z,98668.63
2023-01-17T10:20:03.965Z,98673.13
2023-01-17T10:21:25.160Z,98675.22
2023-01-17T10:22:33.983Z,98674.37
2023-01-17T10:24:28.415Z,98673.84
2023-01-17T10:26:06.094Z,98674.19
2023-01-17T10:27:39.373Z,98683.34
2023-01-17T10:28:49.864Z,98686.56
2023-01-17T10:29:54.356Z,98682.37
2023-01-17T10:31:08.541Z,98675.91
2023-01-17T10:32:12.778Z,98678.62
2023-01-17T10:33:27.474Z,98671.62
2023-01-17T10:34:37.412Z,98656.19
2023-01-17T10:35:51.624Z,98671.56
2023-01-17T10:37:02.031Z,98677.41
2023-01-17T10:38:12.029Z,98666.16
2023-01-17T10:39:23.951Z,98675.91
2023-01-17T10:40:56.102Z,98663.69
2023-01-17T10:42:27.085Z,98669.56
2023-01-17T10:43:45.769Z,98678.62
2023-01-17T10:45:00.177Z,98684.88
2023-01-17T10:46:37.276Z,98678.50
2023-01-17T10:47:42.551Z,98661.78
2023-01-17T10:48:48.156Z,98659.19
2023-01-17T10:49:58.568Z,98671.19
2023-01-17T11:02:43.365Z,98674.78
2023-01-17T11:03:51.389Z,98670.28
2023-01-17T11:04:55.955Z,98673.03
2023-01-17T11:06:20.663Z,98676.75
2023-01-17T11:07:28.665Z,98684.50
2023-01-17T11:08:53.512Z,98671.47
2023-01-17T11:09:58.858Z,98677.81
2023-01-17T11:11:04.573Z,98676.16
2023-01-17T11:12:23.634Z,98673.03
2023-01-17T11:13:36.345Z,98666.87
2023-01-17T11:14:40.461Z,98669.75
2023-01-17T11:15:49.318Z,98675.28
2023-01-17T11:17:06.997Z,98671.69
2023-01-17T11:18:17.505Z,98665.53
2023-01-17T11:19:36.307Z,98665.66
2023-01-17T11:20:43.227Z,98675.94
2023-01-17T11:21:54.893Z,98673.16
2023-01-17T11:23:22.515Z,98671.03
2023-01-17T11:24:40.691Z,98679.53
2023-01-17T11:25:51.147Z,98680.41
2023-01-17T11:26:54.373Z,98685.06
2023-01-17T11:27:59.702Z,98683.97
2023-01-17T11:29:17.301Z,98677.41
2023-01-17T11:30:21.974Z,98680.69
2023-01-17T11:31:27.721Z,98683.31
2023-01-17T11:32:33.760Z,98687.16
2023-01-17T11:33:55.749Z,98681.97
2023-01-17T11:35:27.916Z,98683.81
2023-01-17T11:36:32.610Z,98684.47
2023-01-17T11:37:36.504Z,98686.78
2023-01-17T11:38:40.002Z,98688.63
2023-01-17T11:39:44.391Z,98673.94
2023-01-17T11:40:49.669Z,98677.69
2023-01-17T11:41:52.887Z,98673.00
2023-01-17T11:43:15.507Z,98675.09
2023-01-17T11:44:27.707Z,98674.87
2023-01-17T11:45:33.396Z,98673.94
2023-01-17T11:46:36.628Z,98679.56
2023-01-17T11:47:39.707Z,98666.87
2023-01-17T11:48:57.022Z,98669.88
2023-01-17T11:49:59.690Z,98663.22
2023-01-17T11:51:04.441Z,98662.69
2023-01-17T11:52:18.225Z,98657.47
2023-01-17T11:53:26.687Z,98666.25
2023-01-17T11:54:39.093Z,98663.31
2023-01-17T11:56:04.990Z,98672.16
2023-01-17T11:57:21.107Z,98659.25
2023-01-17T11:58:25.494Z,98669.56
2023-01-17T11:59:37.532Z,98664.69
2023-01-17T12:00:49.664Z,98671.88
2023-01-17T12:02:04.639Z,98668.84
2023-01-17T12:03:40.024Z,98669.19
2023-01-17T12:05:01.337Z,98673.53
2023-01-17T12:06:09.968Z,98670.91
2023-01-17T12:07:30.971Z,98668.31
2023-01-17T12:08:36.651Z,98677.16
2023-01-17T12:10:04.856Z,98671.03
2023-01-17T12:11:10.472Z,98674.06
2023-01-17T12:12:37.961Z,98671.53
2023-01-17T12:14:01.838Z,98667.56
2023-01-17T12:15:18.248Z,98676.88
2023-01-17T12:16:45.377Z,98677.28
2023-01-17T12:18:05.852Z,98679.97
2023-01-17T12:20:01.283Z,98673.53
2023-01-17T12:21:16.922Z,98668.41
2023-01-17T12:22:48.666Z,98669.88
2023-01-17T12:24:14.063Z,98668.72
2023-01-17T12:25:54.669Z,98681.13
2023-01-17T12:27:20.600Z,98686.12
2023-01-17T12:28:49.750Z,98689.78
2023-01-17T12:30:30.848Z,98680.50
2023-01-17T12:31:39.508Z,98683.03
2023-01-17T12:33:12.180Z,98688.75
2023-01-17T12:34:35.052Z,98680.09
2023-01-17T12:35:50.828Z,98681.75
2023-01-17T12:37:38.298Z,98679.16
2023-01-17T12:38:41.235Z,98674.44
2023-01-17T12:39:57.745Z,98672.66
2023-01-17T12:41:10.835Z,98671.97
2023-01-17T12:42:28.468Z,98669.94
2023-01-17T12:43:39.700Z,98672.91
2023-01-17T12:44:48.042Z,98677.47
2023-01-17T12:45:52.889Z,98675.59
2023-01-17T12:47:03.676Z,98673.78
2023-01-17T12:48:12.070Z,98671.19
2023-01-17T12:49:29.742Z,98686.03
2023-01-17T12:50:44.820Z,98688.84
2023-01-17T12:51:53.048Z,98692.09
2023-01-17T12:53:33.263Z,98684.69
2023-01-17T12:54:41.614Z,98692.50
2023-01-17T12:55:56.538Z,98701.88
2023-01-17T12:57:14.015Z,98691.25
2023-01-17T12:58:44.992Z,98695.75
2023-01-17T12:59:58.478Z,98699.28
2023-01-17T13:01:23.305Z,98686.66
2023-01-17T13:14:14.859Z,98720.75
2023-01-17T13:15:25.193Z,98719.41
2023-01-17T13:16:42.999Z,98721.91
2023-01-17T13:17:51.293Z,98710.03
2023-01-17T13:18:56.674Z,98716.12
2023-01-17T13:20:03.344Z,98719.87
2023-01-17T13:21:32.099Z,98720.78
2023-01-17T13:22:38.397Z,98724.12
2023-01-17T13:23:43.864Z,98729.91
2023-01-17T13:25:15.743Z,98726.94
2023-01-17T13:26:56.167Z,98721.03
2023-01-17T13:28:10.762Z,98726.06
2023-01-17T13:29:52.416Z,98727.69
2023-01-17T13:31:31.917Z,98720.53
2023-01-17T13:39:10.901Z,98743.91
2023-01-17T13:40:37.257Z,98742.94
2023-01-17T13:42:01.828Z,98740.31
2023-01-17T13:43:18.864Z,98741.94
2023-01-17T13:44:27.537Z,98741.53
2023-01-17T13:45:33.514Z,98748.00
2023-01-17T13:46:54.854Z,98742.03
2023-01-17T13:48:12.806Z,98752.38
2023-01-17T13:49:31.565Z,98742.69
2023-01-17T13:50:40.681Z,98744.13
2023-01-17T13:52:09.683Z,98748.09
2023-01-17T13:53:27.557Z,98743.31
2023-01-17T13:54:34.329Z,98744.13
2023-01-17T13:55:50.632Z,98744.97
2023-01-17T13:57:30.426Z,98741.84
2023-01-17T13:58:47.248Z,98748.19
2023-01-17T13:59:50.493Z,98745.69
2023-01-17T14:00:54.958Z,98754.16
2023-01-17T14:01:58.216Z,98750.06
2023-01-17T14:03:01.218Z,98744.84